createdAt,value
2022-09-02T00:00:32.621Z,74.95
2022-09-02T00:05:37.493Z,75.10
2022-09-02T00:10:42.885Z,74.68
2022-09-02T00:15:45.934Z,74.76
2022-09-02T00:20:50.336Z,75.79
2022-09-02T00:25:53.737Z,75.73
2022-09-02T00:30:56.532Z,75.29
2022-09-02T00:36:02.250Z,76.07
2022-09-02T00:41:07.725Z,76.06
2022-09-02T00:46:12.250Z,76.55
2022-09-02T00:51:17.453Z,76.71
2022-09-02T00:56:24.552Z,76.46
2022-09-02T01:01:28.070Z,76.98
2022-09-02T01:06:33.670Z,77.41
2022-09-02T01:11:42.508Z,77.48
2022-09-02T01:16:49.568Z,77.81
2022-09-02T01:21:55.085Z,77.98
2022-09-02T01:26:59.448Z,78.22
2022-09-02T01:32:02.517Z,77.24
2022-09-02T01:37:07.105Z,77.91
2022-09-02T01:42:10.253Z,77.92
2022-09-02T01:47:13.791Z,77.79
2022-09-02T01:52:19.881Z,78.22
2022-09-02T01:57:24.589Z,78.36
2022-09-02T02:02:27.462Z,77.84
2022-09-02T02:07:31.984Z,78.24
2022-09-02T02:12:34.947Z,78.21
2022-09-02T02:17:38.082Z,78.45
2022-09-02T02:22:42.533Z,78.56
2022-09-02T02:27:46.108Z,78.14
2022-09-02T02:32:49.179Z,79.03
2022-09-02T02:37:53.808Z,79.27
2022-09-02T02:42:56.627Z,79.02
2022-09-02T02:47:59.524Z,79.02
2022-09-02T02:53:03.757Z,78.42
2022-09-02T02:58:07.452Z,78.95
2022-09-02T03:03:12.032Z,79.22
2022-09-02T03:08:18.607Z,78.92
2022-09-02T03:13:22.606Z,79.16
2022-09-02T03:18:25.443Z,79.08
2022-09-02T03:23:29.575Z,79.19
2022-09-02T03:28:33.626Z,79.38
2022-09-02T03:33:36.452Z,79.48
2022-09-02T03:38:40.600Z,79.60
2022-09-02T03:43:43.357Z,79.42
2022-09-02T03:48:46.145Z,79.45
2022-09-02T03:53:50.435Z,79.65
2022-09-02T03:58:54.131Z,79.04
2022-09-02T04:03:57.559Z,79.33
2022-09-02T04:09:02.820Z,79.86
2022-09-02T04:14:05.616Z,79.71
2022-09-02T04:19:09.502Z,79.82
2022-09-02T04:24:14.010Z,79.74
2022-09-02T04:29:17.988Z,79.79
2022-09-02T04:34:21.822Z,79.64
2022-09-02T04:39:25.979Z,80.10
2022-09-02T04:44:28.765Z,79.84
2022-09-02T04:49:33.227Z,80.01
2022-09-02T04:54:37.714Z,80.22
2022-09-02T04:59:40.548Z,79.90
2022-09-02T05:04:43.337Z,80.00
2022-09-02T05:09:47.513Z,80.70
2022-09-02T05:14:53.437Z,80.69
2022-09-02T05:19:56.231Z,80.94
2022-09-02T05:25:00.365Z,80.60
2022-09-02T05:30:05.184Z,80.98
2022-09-02T05:35:08.907Z,81.17
2022-09-02T05:40:14.959Z,81.30
2022-09-02T05:45:18.578Z,81.35
2022-09-02T05:50:22.090Z,81.62
2022-09-02T05:55:26.398Z,81.61
2022-09-02T06:00:30.365Z,81.08
2022-09-02T06:05:33.117Z,81.20
2022-09-02T06:10:42.308Z,81.23
2022-09-02T06:15:45.271Z,81.56
2022-09-02T06:20:48.967Z,81.61
2022-09-02T06:25:53.144Z,80.79
2022-09-02T06:30:55.971Z,80.24
2022-09-02T06:35:58.821Z,80.02
2022-09-02T06:41:02.963Z,80.82
2022-09-02T06:46:06.099Z,80.41
2022-09-02T06:51:09.185Z,80.36
2022-09-02T06:56:13.920Z,80.13
2022-09-02T07:01:21.155Z,79.81
2022-09-02T07:06:24.653Z,79.55
2022-09-02T07:11:28.889Z,79.75
2022-09-02T07:16:34.865Z,79.85
2022-09-02T07:21:38.104Z,79.05
2022-09-02T07:26:43.147Z,79.20
2022-09-02T07:31:48.627Z,77.96
2022-09-02T07:36:52.651Z,78.33
2022-09-02T07:41:56.793Z,77.53
2022-09-02T07:46:59.599Z,77.21
2022-09-02T07:52:02.530Z,76.88
2022-09-02T07:57:07.347Z,76.56
2022-09-02T08:02:10.572Z,76.45
2022-09-02T08:07:13.645Z,76.44
2022-09-02T08:12:20.232Z,75.54
2022-09-02T08:17:25.100Z,75.47
2022-09-02T08:27:43.160Z,74.70
2022-09-02T08:32:45.973Z,73.94
2022-09-02T08:37:48.795Z,73.50
2022-09-02T08:42:55.575Z,74.04
2022-09-02T08:48:08.181Z,73.30
2022-09-02T08:53:17.289Z,73.50
2022-09-02T08:58:24.842Z,71.06
2022-09-02T09:03:31.575Z,70.19
2022-09-02T09:08:42.884Z,70.16
2022-09-02T09:14:17.465Z,68.89
2022-09-02T09:19:32.549Z,69.47
2022-09-02T09:24:39.516Z,69.13
2022-09-02T09:29:44.497Z,68.39
2022-09-02T09:35:01.525Z,66.88
2022-09-02T09:40:24.291Z,67.13
2022-09-02T09:45:32.378Z,67.78
2022-09-02T09:50:35.680Z,65.61
2022-09-02T09:55:52.270Z,65.49
2022-09-02T10:01:00.691Z,64.63
2022-09-02T10:06:20.038Z,61.74
2022-09-02T10:11:26.824Z,61.93
2022-09-02T10:16:49.887Z,59.68
2022-09-02T10:22:23.464Z,58.80
2022-09-02T10:27:51.102Z,57.85
2022-09-02T10:33:17.197Z,57.53
2022-09-02T10:38:37.167Z,58.61
2022-09-02T10:43:59.221Z,58.71
2022-09-02T10:49:13.341Z,58.36
2022-09-02T10:54:32.012Z,58.88
2022-09-02T10:59:40.381Z,57.88
2022-09-02T11:04:55.217Z,57.67
2022-09-02T11:10:04.307Z,58.78
2022-09-02T11:15:16.520Z,57.23
2022-09-02T11:20:31.459Z,61.43
2022-09-02T11:25:41.145Z,57.07
2022-09-02T11:35:55.886Z,56.60
2022-09-02T11:41:40.511Z,54.52
2022-09-02T11:47:08.209Z,52.54
2022-09-02T11:52:26.097Z,52.35
2022-09-02T11:57:29.104Z,52.09
2022-09-02T12:02:43.267Z,52.65
2022-09-02T12:07:50.669Z,51.29
2022-09-02T12:13:09.575Z,49.77
2022-09-02T12:18:31.100Z,49.03
2022-09-02T12:24:17.178Z,49.75
2022-09-02T12:29:34.181Z,49.10
2022-09-02T12:34:56.648Z,51.17
2022-09-02T12:40:13.152Z,50.35
2022-09-02T12:45:29.088Z,49.10
2022-09-02T12:50:36.126Z,50.01
2022-09-02T12:55:41.057Z,48.99
2022-09-02T13:00:58.770Z,46.98
2022-09-02T13:06:08.074Z,46.48
2022-09-02T13:12:02.458Z,46.37
2022-09-02T13:23:03.936Z,47.71
2022-09-02T13:28:39.492Z,46.08
2022-09-02T13:33:44.527Z,46.11
2022-09-02T13:38:47.359Z,46.58
2022-09-02T13:44:06.989Z,46.59
2022-09-02T13:49:23.175Z,47.60
2022-09-02T13:54:32.438Z,46.55
2022-09-02T13:59:38.370Z,47.01
2022-09-02T14:04:42.595Z,47.21
2022-09-02T14:09:46.624Z,47.30
2022-09-02T14:14:49.916Z,46.75
2022-09-02T14:20:10.304Z,45.85
2022-09-02T14:25:15.670Z,44.98
2022-09-02T14:30:30.729Z,44.41
2022-09-02T14:35:34.856Z,46.67
2022-09-02T14:40:43.015Z,46.02
2022-09-02T14:45:49.887Z,46.99
2022-09-02T14:51:02.821Z,47.52
2022-09-02T14:56:07.344Z,46.88
2022-09-02T15:01:10.207Z,46.51
2022-09-02T15:06:15.334Z,46.19
2022-09-02T15:11:21.144Z,45.32
2022-09-02T15:16:23.970Z,47.28
2022-09-02T15:21:28.112Z,48.24
2022-09-02T15:26:30.960Z,48.29
2022-09-02T15:31:33.776Z,49.82
2022-09-02T15:36:37.957Z,49.90
2022-09-02T15:41:44.676Z,48.89
2022-09-02T15:46:47.472Z,49.34
2022-09-02T15:51:54.977Z,50.22
2022-09-02T15:56:59.640Z,51.21
2022-09-02T16:02:02.538Z,52.09
2022-09-02T16:07:06.915Z,51.71
2022-09-02T16:12:11.122Z,51.68
2022-09-02T16:17:13.896Z,51.64
2022-09-02T16:22:18.095Z,51.86
2022-09-02T16:27:40.879Z,51.08
2022-09-02T16:32:43.656Z,52.42
2022-09-02T16:37:47.945Z,53.55
2022-09-02T16:42:51.106Z,53.37
2022-09-02T16:47:53.898Z,52.68
2022-09-02T16:52:58.047Z,53.88
2022-09-02T16:58:02.889Z,53.17
2022-09-02T17:03:05.825Z,52.78
2022-09-02T17:08:10.021Z,51.44
2022-09-02T17:13:12.954Z,51.84
2022-09-02T17:18:15.722Z,53.23
2022-09-02T17:23:21.159Z,55.20
2022-09-02T17:28:27.099Z,56.67
2022-09-02T17:33:30.168Z,58.20
2022-09-02T17:38:34.302Z,59.67
2022-09-02T17:43:38.591Z,60.63
2022-09-02T17:49:05.760Z,62.04
2022-09-02T17:54:07.016Z,63.48
2022-09-02T17:59:28.189Z,64.13
2022-09-02T18:04:53.471Z,65.00
2022-09-02T18:09:57.992Z,65.02
2022-09-02T18:15:02.939Z,65.33
2022-09-02T18:20:10.921Z,65.58
2022-09-02T18:25:29.242Z,66.22
2022-09-02T18:30:39.731Z,65.55
2022-09-02T18:35:51.017Z,66.48
2022-09-02T18:41:07.181Z,67.04
2022-09-02T18:46:13.625Z,66.80
2022-09-02T18:51:25.338Z,68.24
2022-09-02T18:56:34.478Z,68.57
2022-09-02T19:01:44.725Z,68.79
2022-09-02T19:06:48.472Z,69.35
2022-09-02T19:11:52.603Z,70.09
2022-09-02T19:16:57.662Z,69.15
2022-09-02T19:22:04.745Z,69.84
2022-09-02T19:27:13.382Z,70.44
2022-09-02T19:32:16.410Z,70.71
2022-09-02T19:37:19.648Z,71.12
2022-09-02T19:42:24.410Z,71.73
2022-09-02T19:52:50.409Z,72.57
2022-09-02T19:57:54.533Z,72.29
2022-09-02T20:02:57.390Z,72.68
2022-09-02T20:08:00.485Z,72.50
2022-09-02T20:13:05.177Z,72.80
2022-09-02T20:18:12.442Z,72.75
2022-09-02T20:23:17.506Z,72.64
2022-09-02T20:28:26.117Z,73.43
2022-09-02T20:33:38.848Z,73.87
2022-09-02T20:38:58.198Z,73.72
2022-09-02T20:44:28.017Z,73.79
2022-09-02T20:49:46.006Z,73.49
2022-09-02T20:54:56.602Z,73.63
2022-09-02T21:00:07.814Z,73.36
2022-09-02T21:05:15.517Z,73.62
2022-09-02T21:10:30.361Z,74.78
2022-09-02T21:15:40.225Z,75.44
2022-09-02T21:20:50.400Z,75.30
2022-09-02T21:25:56.745Z,76.12
2022-09-02T21:31:06.604Z,76.55
2022-09-02T21:36:14.589Z,76.63
2022-09-02T21:41:31.620Z,77.92
2022-09-02T21:46:45.820Z,77.88
2022-09-02T21:51:53.902Z,77.75
2022-09-02T21:57:14.282Z,78.02
2022-09-02T22:02:25.708Z,77.56
2022-09-02T22:07:34.399Z,77.63
2022-09-02T22:12:39.726Z,77.88
2022-09-02T22:17:49.145Z,77.74
2022-09-02T22:22:55.755Z,77.88
2022-09-02T22:28:06.576Z,78.14
2022-09-02T22:33:15.388Z,77.85
2022-09-02T22:38:25.547Z,78.46
2022-09-02T22:43:41.433Z,77.92
2022-09-02T22:49:09.631Z,77.11
2022-09-02T22:54:12.435Z,76.86
2022-09-02T22:59:31.086Z,76.13
2022-09-02T23:04:48.383Z,75.46
2022-09-02T23:09:57.214Z,75.29
2022-09-02T23:15:15.515Z,74.60
2022-09-02T23:20:28.191Z,74.11
2022-09-02T23:25:43.294Z,74.09
2022-09-02T23:31:01.100Z,73.65
2022-09-02T23:36:13.960Z,73.70
2022-09-02T23:41:17.921Z,73.86
2022-09-02T23:46:32.059Z,73.53
2022-09-02T23:51:48.662Z,73.50
2022-09-02T23:57:02.038Z,74.31
